KCLE/CLE METAR and TAF weather

Enter ICAO airport designator
Station Type Date Time Source
KCLE METAR 2019/04/25 21:51 UTC NOAA

KCLE 252151Z 00000KT 9SM -RA SCT016 OVC022 17/09 A2977 RMK AO2 RAB48 SLP082 P0000 T01720089 $


Station Type Date Time Source
KCLE Decoded METAR 2019/04/25 21:51 UTC NOAA

CLEVELAND-HOPKINS INTERNATIONAL , OH, United States (KCLE) 41-24N 081-51W 236M
Apr 25, 2019 - 05:51 PM EDT / 2019.04.25 2151 UTC
Wind: Calm:0
Visibility: 9 mile(s):0
Sky conditions: overcast
Weather: light rain
Precipitation last hour: A trace
Temperature: 63.0 F (17.2 C)
Dew Point: 48.0 F (8.9 C)
Relative Humidity: 58%
Pressure (altimeter): 29.77 in. Hg (1008 hPa)
ob: KCLE 252151Z 00000KT 9SM -RA SCT016 OVC022 17/09 A2977 RMK AO2 RAB48 SLP082 P0000 T01720089
cycle: 22

Station Type Date Time Source
KCLE TAF 2019/04/25 21:57 UTC NOAA

TAF
AMD KCLE 252054Z 2521/2624 12005KT P6SM BKN025
FM252300 12005KT P6SM -SHRA OVC012
TEMPO 2523/2603 3SM -SHRA BR OVC008
FM260400 15005KT 3SM SHRA BR OVC010
FM261100 29004KT 6SM -SHRA BR OVC008
FM261500 31015G25KT 6SM -SHRA OVC010
FM261900 31018G28KT P6SM OVC030

Example: see airport list